sensor_id;sensor_type;location;lat;lon;timestamp;pressure;altitude;pressure_sealevel;temperature;humidity
28456;BME280;15682;56.742;38.866;2023-04-23T15:40:10;;;;17.0;44.3
28456;BME280;15682;56.742;38.866;2023-04-23T15:42:09;99350.0;;;17.0;44.3
28456;BME280;15682;56.742;38.866;2023-04-23T15:44:09;99360.0;;;16.9;44.3
28456;BME280;15682;56.742;38.866;2023-04-23T15:46:09;99360.0;;;16.9;44.2
28456;BME280;15682;56.742;38.866;2023-04-23T15:48:10;99360.0;;;16.9;43.8
28456;BME280;15682;56.742;38.866;2023-04-23T15:50:11;99360.0;;;16.9;43.8
28456;BME280;15682;56.742;38.866;2023-04-23T15:52:10;99350.0;;;16.9;43.8
28456;BME280;15682;56.742;38.866;2023-04-23T15:54:11;99350.0;;;16.9;44.5
28456;BME280;15682;56.742;38.866;2023-04-23T15:56:11;99350.0;;;16.8;44.4
28456;BME280;15682;56.742;38.866;2023-04-23T15:58:11;99350.0;;;16.8;44.4
28456;BME280;15682;56.742;38.866;2023-04-23T16:00:12;99350.0;;;16.8;43.9
28456;BME280;15682;56.742;38.866;2023-04-23T16:02:12;99350.0;;;16.8;43.9
28456;BME280;15682;56.742;38.866;2023-04-23T16:04:12;99350.0;;;16.8;44.7
28456;BME280;15682;56.742;38.866;2023-04-23T16:06:12;99350.0;;;16.7;44.9
28456;BME280;15682;56.742;38.866;2023-04-23T16:08:13;99350.0;;;16.7;44.9
28456;BME280;15682;56.742;38.866;2023-04-23T16:10:13;99350.0;;;16.7;44.9
28456;BME280;15682;56.742;38.866;2023-04-23T16:12:13;99350.0;;;16.5;45.2
28456;BME280;15682;56.742;38.866;2023-04-23T16:14:13;99350.0;;;16.5;45.2
28456;BME280;15682;56.742;38.866;2023-04-23T16:16:14;99350.0;;;16.5;45.0
28456;BME280;15682;56.742;38.866;2023-04-23T16:18:14;99350.0;;;16.5;45.0
28456;BME280;15682;56.742;38.866;2023-04-23T16:20:14;99350.0;;;16.4;45.0
28456;BME280;15682;56.742;38.866;2023-04-23T16:22:15;99350.0;;;16.4;45.0
28456;BME280;15682;56.742;38.866;2023-04-23T16:24:15;99360.0;;;16.2;45.0
28456;BME280;15682;56.742;38.866;2023-04-23T16:26:15;99360.0;;;16.2;45.1
28456;BME280;15682;56.742;38.866;2023-04-23T16:28:16;99360.0;;;16.2;45.1
28456;BME280;15682;56.742;38.866;2023-04-23T16:30:16;99360.0;;;16.1;45.1
28456;BME280;15682;56.742;38.866;2023-04-23T16:32:16;99360.0;;;16.0;45.8
28456;BME280;15682;56.742;38.866;2023-04-23T16:34:16;99360.0;;;16.0;46.5
28456;BME280;15682;56.742;38.866;2023-04-23T16:36:17;99360.0;;;15.9;46.6
28456;BME280;15682;56.742;38.866;2023-04-23T16:38:17;99370.0;;;15.9;46.6
28456;BME280;15682;56.742;38.866;2023-04-23T16:40:18;99370.0;;;15.9;46.6
28456;BME280;15682;56.742;38.866;2023-04-23T16:42:18;99370.0;;;15.9;47.1
28456;BME280;15682;56.742;38.866;2023-04-23T16:44:18;99370.0;;;15.7;47.1
28456;BME280;15682;56.742;38.866;2023-04-23T16:46:18;99380.0;;;15.7;47.4
28456;BME280;15682;56.742;38.866;2023-04-23T16:48:18;99380.0;;;15.6;48.4
28456;BME280;15682;56.742;38.866;2023-04-23T16:50:19;99380.0;;;15.6;48.6
28456;BME280;15682;56.742;38.866;2023-04-23T16:52:19;99380.0;;;15.4;48.3
28456;BME280;15682;56.742;38.866;2023-04-23T16:54:19;99380.0;;;15.4;47.8
28456;BME280;15682;56.742;38.866;2023-04-23T16:56:21;99380.0;;;15.4;48.2
28456;BME280;15682;56.742;38.866;2023-04-23T16:58:19;99380.0;;;15.4;48.2
28456;BME280;15682;56.742;38.866;2023-04-23T17:00:20;99390.0;;;15.4;48.5
28456;BME280;15682;56.742;38.866;2023-04-23T17:02:20;99390.0;;;15.3;48.5
28456;BME280;15682;56.742;38.866;2023-04-23T17:04:23;99390.0;;;15.2;49.1
28456;BME280;15682;56.742;38.866;2023-04-23T17:06:25;99390.0;;;15.1;49.5
28456;BME280;15682;56.742;38.866;2023-04-23T17:08:21;99400.0;;;15.1;50.9
28456;BME280;15682;56.742;38.866;2023-04-23T17:10:21;99400.0;;;15.1;51.6
28456;BME280;15682;56.742;38.866;2023-04-23T17:12:25;99400.0;;;15.0;51.9
28456;BME280;15682;56.742;38.866;2023-04-23T17:14:21;99400.0;;;15.0;50.1
28456;BME280;15682;56.742;38.866;2023-04-23T17:16:23;99400.0;;;14.9;51.4
28456;BME280;15682;56.742;38.866;2023-04-23T17:18:23;99400.0;;;14.9;51.4
28456;BME280;15682;56.742;38.866;2023-04-23T17:20:25;99400.0;;;14.9;51.7
28456;BME280;15682;56.742;38.866;2023-04-23T17:22:23;99410.0;;;14.7;51.7
28456;BME280;15682;56.742;38.866;2023-04-23T17:24:24;99410.0;;;14.7;52.1
28456;BME280;15682;56.742;38.866;2023-04-23T17:26:23;99410.0;;;14.6;53.0
28456;BME280;15682;56.742;38.866;2023-04-23T17:28:24;99410.0;;;14.5;53.0
28456;BME280;15682;56.742;38.866;2023-04-23T17:30:25;99410.0;;;14.5;53.5
28456;BME280;15682;56.742;38.866;2023-04-23T17:32:24;99420.0;;;14.4;53.2
28456;BME280;15682;56.742;38.866;2023-04-23T17:34:24;99420.0;;;14.2;54.0
28456;BME280;15682;56.742;38.866;2023-04-23T17:36:24;99420.0;;;14.1;53.7
28456;BME280;15682;56.742;38.866;2023-04-23T17:38:25;99430.0;;;14.0;54.9
28456;BME280;15682;56.742;38.866;2023-04-23T17:40:41;99430.0;;;13.9;54.9
28456;BME280;15682;56.742;38.866;2023-04-23T17:42:25;99430.0;;;13.9;54.9
28456;BME280;15682;56.742;38.866;2023-04-23T17:44:26;99430.0;;;13.9;54.9
28456;BME280;15682;56.742;38.866;2023-04-23T17:46:27;99440.0;;;13.8;55.5
28456;BME280;15682;56.742;38.866;2023-04-23T17:48:26;99440.0;;;13.8;55.5
28456;BME280;15682;56.742;38.866;2023-04-23T17:50:26;99440.0;;;13.6;55.0
28456;BME280;15682;56.742;38.866;2023-04-23T17:52:26;99430.0;;;13.6;56.0
28456;BME280;15682;56.742;38.866;2023-04-23T17:54:29;99430.0;;;13.5;55.6
28456;BME280;15682;56.742;38.866;2023-04-23T17:56:28;99440.0;;;13.5;55.4
28456;BME280;15682;56.742;38.866;2023-04-23T17:58:30;99440.0;;;13.5;55.4
28456;BME280;15682;56.742;38.866;2023-04-23T18:00:27;99440.0;;;13.5;55.4
28456;BME280;15682;56.742;38.866;2023-04-23T18:02:28;99440.0;;;13.5;55.4
28456;BME280;15682;56.742;38.866;2023-04-23T18:04:28;99440.0;;;13.5;58.2
28456;BME280;15682;56.742;38.866;2023-04-23T18:06:28;99440.0;;;13.5;55.6
28456;BME280;15682;56.742;38.866;2023-04-23T18:08:29;99450.0;;;13.5;54.3
28456;BME280;15682;56.742;38.866;2023-04-23T18:11:00;99450.0;;;13.6;53.7
28456;BME280;15682;56.742;38.866;2023-04-23T18:12:32;99450.0;;;13.4;53.7
28456;BME280;15682;56.742;38.866;2023-04-23T18:14:30;99450.0;;;13.3;54.0
28456;BME280;15682;56.742;38.866;2023-04-23T18:16:29;99450.0;;;13.4;54.3
28456;BME280;15682;56.742;38.866;2023-04-23T18:18:30;99450.0;;;13.4;54.6
28456;BME280;15682;56.742;38.866;2023-04-23T18:20:29;99450.0;;;13.4;53.6
28456;BME280;15682;56.742;38.866;2023-04-23T18:22:30;99450.0;;;13.4;54.5
28456;BME280;15682;56.742;38.866;2023-04-23T18:24:30;99450.0;;;13.4;54.4
28456;BME280;15682;56.742;38.866;2023-04-23T18:26:30;99450.0;;;13.2;53.6
28456;BME280;15682;56.742;38.866;2023-04-23T18:28:30;99450.0;;;13.2;53.6
28456;BME280;15682;56.742;38.866;2023-04-23T18:30:30;99450.0;;;13.2;53.6
28456;BME280;15682;56.742;38.866;2023-04-23T18:32:34;99450.0;;;13.2;53.6
28456;BME280;15682;56.742;38.866;2023-04-23T18:34:38;99450.0;;;13.2;53.1
28456;BME280;15682;56.742;38.866;2023-04-23T18:36:35;99450.0;;;13.1;53.5
28456;BME280;15682;56.742;38.866;2023-04-23T18:38:37;99450.0;;;13.1;53.3
28456;BME280;15682;56.742;38.866;2023-04-23T18:40:31;99450.0;;;13.1;53.3
28456;BME280;15682;56.742;38.866;2023-04-23T18:42:33;99450.0;;;13.1;54.2
28456;BME280;15682;56.742;38.866;2023-04-23T18:44:32;99450.0;;;13.1;54.2
28456;BME280;15682;56.742;38.866;2023-04-23T18:46:32;99460.0;;;13.0;54.1
28456;BME280;15682;56.742;38.866;2023-04-23T18:48:45;99460.0;;;12.9;56.0
28456;BME280;15682;56.742;38.866;2023-04-23T18:50:40;99460.0;;;12.9;53.8
28456;BME280;15682;56.742;38.866;2023-04-23T18:52:32;99460.0;;;12.9;54.5
28456;BME280;15682;56.742;38.866;2023-04-23T18:54:32;99460.0;;;13.1;53.4
28456;BME280;15682;56.742;38.866;2023-04-23T18:56:33;99460.0;;;13.0;53.4
28456;BME280;15682;56.742;38.866;2023-04-23T18:58:33;99460.0;;;12.8;55.4
28456;BME280;15682;56.742;38.866;2023-04-23T19:00:33;99460.0;;;12.8;56.3
28456;BME280;15682;56.742;38.866;2023-04-23T19:02:33;99460.0;;;12.8;54.7
28456;BME280;15682;56.742;38.866;2023-04-23T19:04:33;99460.0;;;12.8;53.9
28456;BME280;15682;56.742;38.866;2023-04-23T19:06:33;99460.0;;;12.9;53.1
28456;BME280;15682;56.742;38.866;2023-04-23T19:08:34;99460.0;;;12.9;54.4
28456;BME280;15682;56.742;38.866;2023-04-23T19:10:34;99460.0;;;12.9;54.8
28456;BME280;15682;56.742;38.866;2023-04-23T19:12:34;99460.0;;;12.7;53.9
28456;BME280;15682;56.742;38.866;2023-04-23T19:14:34;99460.0;;;12.5;54.5
28456;BME280;15682;56.742;38.866;2023-04-23T19:16:35;99460.0;;;12.6;55.1
28456;BME280;15682;56.742;38.866;2023-04-23T19:18:35;99460.0;;;12.6;55.1
28456;BME280;15682;56.742;38.866;2023-04-23T19:20:35;99460.0;;;12.6;54.1
28456;BME280;15682;56.742;38.866;2023-04-23T19:22:35;99460.0;;;12.6;54.1
28456;BME280;15682;56.742;38.866;2023-04-23T19:24:36;99460.0;;;12.6;55.9
28456;BME280;15682;56.742;38.866;2023-04-23T19:26:36;99460.0;;;12.4;55.4
28456;BME280;15682;56.742;38.866;2023-04-23T19:28:36;99460.0;;;12.2;55.1
28456;BME280;15682;56.742;38.866;2023-04-23T19:30:36;99470.0;;;12.2;56.1
28456;BME280;15682;56.742;38.866;2023-04-23T19:32:36;99470.0;;;12.2;56.1
28456;BME280;15682;56.742;38.866;2023-04-23T19:34:36;99470.0;;;12.2;56.1
28456;BME280;15682;56.742;38.866;2023-04-23T19:36:36;99470.0;;;12.0;56.8
28456;BME280;15682;56.742;38.866;2023-04-23T19:38:36;99470.0;;;12.0;55.9
28456;BME280;15682;56.742;38.866;2023-04-23T19:40:36;99470.0;;;11.9;57.1
28456;BME280;15682;56.742;38.866;2023-04-23T19:42:37;99470.0;;;11.9;56.5
28456;BME280;15682;56.742;38.866;2023-04-23T19:44:37;99470.0;;;11.9;55.9
28456;BME280;15682;56.742;38.866;2023-04-23T19:46:37;99470.0;;;11.8;56.3
28456;BME280;15682;56.742;38.866;2023-04-23T19:48:37;99470.0;;;11.8;56.8
28456;BME280;15682;56.742;38.866;2023-04-23T19:50:37;99470.0;;;11.8;57.9
28456;BME280;15682;56.742;38.866;2023-04-23T19:52:38;99470.0;;;11.8;56.8
28456;BME280;15682;56.742;38.866;2023-04-23T19:54:38;99470.0;;;11.6;56.8
28456;BME280;15682;56.742;38.866;2023-04-23T19:56:38;99480.0;;;11.5;56.6
28456;BME280;15682;56.742;38.866;2023-04-23T19:58:38;99480.0;;;11.5;57.4
28456;BME280;15682;56.742;38.866;2023-04-23T20:00:38;99480.0;;;11.4;56.9
28456;BME280;15682;56.742;38.866;2023-04-23T20:02:38;99480.0;;;11.4;58.0
28456;BME280;15682;56.742;38.866;2023-04-23T20:04:38;99480.0;;;11.4;57.2
28456;BME280;15682;56.742;38.866;2023-04-23T20:06:39;99480.0;;;11.4;56.9
28456;BME280;15682;56.742;38.866;2023-04-23T20:08:39;99480.0;;;11.4;57.6
28456;BME280;15682;56.742;38.866;2023-04-23T20:10:39;99480.0;;;11.4;59.0
28456;BME280;15682;56.742;38.866;2023-04-23T20:12:39;99480.0;;;11.3;58.1
28456;BME280;15682;56.742;38.866;2023-04-23T20:14:39;99480.0;;;11.3;57.5
28456;BME280;15682;56.742;38.866;2023-04-23T20:16:40;99480.0;;;11.2;58.1
28456;BME280;15682;56.742;38.866;2023-04-23T20:18:39;99480.0;;;11.1;58.1
28456;BME280;15682;56.742;38.866;2023-04-23T20:20:40;99480.0;;;11.0;58.7
28456;BME280;15682;56.742;38.866;2023-04-23T20:22:40;99480.0;;;11.2;58.6
28456;BME280;15682;56.742;38.866;2023-04-23T20:24:40;99480.0;;;11.2;58.6
28456;BME280;15682;56.742;38.866;2023-04-23T20:26:41;99480.0;;;11.2;58.1
28456;BME280;15682;56.742;38.866;2023-04-23T20:28:40;99480.0;;;11.2;58.8
28456;BME280;15682;56.742;38.866;2023-04-23T20:30:40;99480.0;;;11.2;58.8
28456;BME280;15682;56.742;38.866;2023-04-23T20:32:40;99480.0;;;11.0;59.3
28456;BME280;15682;56.742;38.866;2023-04-23T20:34:40;99480.0;;;10.9;60.5
28456;BME280;15682;56.742;38.866;2023-04-23T20:36:41;99480.0;;;11.1;58.8
28456;BME280;15682;56.742;38.866;2023-04-23T20:38:41;99480.0;;;11.1;58.8
28456;BME280;15682;56.742;38.866;2023-04-23T20:40:41;99480.0;;;11.2;58.3
28456;BME280;15682;56.742;38.866;2023-04-23T20:42:41;99480.0;;;11.2;58.3
28456;BME280;15682;56.742;38.866;2023-04-23T20:44:42;99480.0;;;11.2;58.5
28456;BME280;15682;56.742;38.866;2023-04-23T20:46:41;99480.0;;;11.2;58.5
28456;BME280;15682;56.742;38.866;2023-04-23T20:48:42;99490.0;;;11.2;58.5
28456;BME280;15682;56.742;38.866;2023-04-23T20:50:42;99490.0;;;11.1;58.5
28456;BME280;15682;56.742;38.866;2023-04-23T20:52:42;99490.0;;;11.1;59.1
28456;BME280;15682;56.742;38.866;2023-04-23T20:54:42;99490.0;;;11.1;58.5
28456;BME280;15682;56.742;38.866;2023-04-23T20:56:42;99490.0;;;11.2;58.3
28456;BME280;15682;56.742;38.866;2023-04-23T20:58:42;99490.0;;;11.1;58.3
28456;BME280;15682;56.742;38.866;2023-04-23T21:00:42;99490.0;;;11.1;59.5
28456;BME280;15682;56.742;38.866;2023-04-23T21:02:42;99490.0;;;11.1;58.5
28456;BME280;15682;56.742;38.866;2023-04-23T21:04:43;99490.0;;;11.1;59.3
28456;BME280;15682;56.742;38.866;2023-04-23T21:06:43;99490.0;;;10.9;59.2
28456;BME280;15682;56.742;38.866;2023-04-23T21:08:43;99490.0;;;10.9;60.0
28456;BME280;15682;56.742;38.866;2023-04-23T21:10:43;99490.0;;;11.0;59.3
28456;BME280;15682;56.742;38.866;2023-04-23T21:12:44;99490.0;;;11.1;61.5
28456;BME280;15682;56.742;38.866;2023-04-23T21:14:43;99490.0;;;11.1;58.0
28456;BME280;15682;56.742;38.866;2023-04-23T21:16:44;99490.0;;;11.0;58.5
28456;BME280;15682;56.742;38.866;2023-04-23T21:18:44;99490.0;;;11.0;59.8
28456;BME280;15682;56.742;38.866;2023-04-23T21:20:44;99490.0;;;11.0;58.0
28456;BME280;15682;56.742;38.866;2023-04-23T21:22:44;99490.0;;;11.0;59.9
28456;BME280;15682;56.742;38.866;2023-04-23T21:24:45;99490.0;;;11.0;58.7
28456;BME280;15682;56.742;38.866;2023-04-23T21:26:44;99490.0;;;10.8;58.8
28456;BME280;15682;56.742;38.866;2023-04-23T21:28:44;99490.0;;;10.8;58.8
28456;BME280;15682;56.742;38.866;2023-04-23T21:30:47;99490.0;;;10.8;59.8
28456;BME280;15682;56.742;38.866;2023-04-23T21:32:45;99490.0;;;11.0;61.0
28456;BME280;15682;56.742;38.866;2023-04-23T21:34:45;99490.0;;;11.0;60.0
28456;BME280;15682;56.742;38.866;2023-04-23T21:36:45;99490.0;;;10.9;59.0
28456;BME280;15682;56.742;38.866;2023-04-23T21:38:45;99490.0;;;10.9;59.6
28456;BME280;15682;56.742;38.866;2023-04-23T21:40:45;99490.0;;;10.9;59.6
28456;BME280;15682;56.742;38.866;2023-04-23T21:42:46;99500.0;;;10.9;60.3
28456;BME280;15682;56.742;38.866;2023-04-23T21:44:46;99500.0;;;10.8;59.6
28456;BME280;15682;56.742;38.866;2023-04-23T21:46:46;99510.0;;;10.7;59.3
28456;BME280;15682;56.742;38.866;2023-04-23T21:48:47;99510.0;;;10.6;63.9
28456;BME280;15682;56.742;38.866;2023-04-23T21:50:46;99510.0;;;10.7;61.1
28456;BME280;15682;56.742;38.866;2023-04-23T21:52:46;99510.0;;;10.5;61.3
28456;BME280;15682;56.742;38.866;2023-04-23T21:54:46;99510.0;;;10.6;61.3
28456;BME280;15682;56.742;38.866;2023-04-23T21:56:47;99510.0;;;10.7;60.3
28456;BME280;15682;56.742;38.866;2023-04-23T21:58:47;99510.0;;;10.7;61.2
28456;BME280;15682;56.742;38.866;2023-04-23T22:00:47;99510.0;;;10.8;60.0
28456;BME280;15682;56.742;38.866;2023-04-23T22:02:47;99510.0;;;10.7;60.4
28456;BME280;15682;56.742;38.866;2023-04-23T22:04:47;99510.0;;;10.6;60.7
28456;BME280;15682;56.742;38.866;2023-04-23T22:06:47;99510.0;;;10.5;61.3
28456;BME280;15682;56.742;38.866;2023-04-23T22:08:47;99510.0;;;10.7;64.0
28456;BME280;15682;56.742;38.866;2023-04-23T22:10:47;99510.0;;;10.7;59.5
28456;BME280;15682;56.742;38.866;2023-04-23T22:12:48;99510.0;;;10.7;59.5
28456;BME280;15682;56.742;38.866;2023-04-23T22:14:48;99510.0;;;10.7;60.1
28456;BME280;15682;56.742;38.866;2023-04-23T22:16:48;99510.0;;;10.7;59.7
28456;BME280;15682;56.742;38.866;2023-04-23T22:18:48;99510.0;;;10.7;59.5
28456;BME280;15682;56.742;38.866;2023-04-23T22:20:48;99510.0;;;10.7;59.7
28456;BME280;15682;56.742;38.866;2023-04-23T22:22:48;99510.0;;;10.5;59.9
28456;BME280;15682;56.742;38.866;2023-04-23T22:24:48;99510.0;;;10.5;59.8
28456;BME280;15682;56.742;38.866;2023-04-23T22:26:49;99510.0;;;10.5;59.2
28456;BME280;15682;56.742;38.866;2023-04-23T22:28:49;99510.0;;;10.5;59.9
28456;BME280;15682;56.742;38.866;2023-04-23T22:30:49;99510.0;;;10.5;59.7
28456;BME280;15682;56.742;38.866;2023-04-23T22:32:49;99510.0;;;10.6;59.7
28456;BME280;15682;56.742;38.866;2023-04-23T22:34:49;99510.0;;;10.7;59.0
28456;BME280;15682;56.742;38.866;2023-04-23T22:36:49;99510.0;;;10.7;59.3
28456;BME280;15682;56.742;38.866;2023-04-23T22:38:49;99510.0;;;10.5;59.3
28456;BME280;15682;56.742;38.866;2023-04-23T22:40:49;99510.0;;;10.4;60.3
28456;BME280;15682;56.742;38.866;2023-04-23T22:42:50;99510.0;;;10.4;60.3
28456;BME280;15682;56.742;38.866;2023-04-23T22:44:50;99510.0;;;10.5;59.2
28456;BME280;15682;56.742;38.866;2023-04-23T22:46:50;99510.0;;;10.5;59.9
28456;BME280;15682;56.742;38.866;2023-04-23T22:48:50;99510.0;;;10.5;59.6
28456;BME280;15682;56.742;38.866;2023-04-23T22:50:50;99510.0;;;10.5;60.3
28456;BME280;15682;56.742;38.866;2023-04-23T22:52:50;99510.0;;;10.3;61.0
28456;BME280;15682;56.742;38.866;2023-04-23T22:54:50;99520.0;;;10.3;59.8
28456;BME280;15682;56.742;38.866;2023-04-23T22:56:51;99520.0;;;10.4;59.5
28456;BME280;15682;56.742;38.866;2023-04-23T22:58:51;99520.0;;;10.2;60.7
28456;BME280;15682;56.742;38.866;2023-04-23T23:00:51;99520.0;;;9.8;60.3
28456;BME280;15682;56.742;38.866;2023-04-23T23:02:51;99520.0;;;9.8;62.8
28456;BME280;15682;56.742;38.866;2023-04-23T23:04:51;99520.0;;;9.7;59.6
28456;BME280;15682;56.742;38.866;2023-04-23T23:06:51;99520.0;;;9.8;60.9
28456;BME280;15682;56.742;38.866;2023-04-23T23:08:51;99520.0;;;9.9;60.5
28456;BME280;15682;56.742;38.866;2023-04-23T23:10:51;99520.0;;;9.9;60.3
28456;BME280;15682;56.742;38.866;2023-04-23T23:12:52;99520.0;;;9.9;60.3
28456;BME280;15682;56.742;38.866;2023-04-23T23:14:52;99520.0;;;9.9;60.3
28456;BME280;15682;56.742;38.866;2023-04-23T23:16:52;99520.0;;;9.9;60.8
28456;BME280;15682;56.742;38.866;2023-04-23T23:18:52;99520.0;;;9.8;61.7
28456;BME280;15682;56.742;38.866;2023-04-23T23:20:52;99520.0;;;9.6;61.7
28456;BME280;15682;56.742;38.866;2023-04-23T23:22:52;99520.0;;;9.7;61.7
28456;BME280;15682;56.742;38.866;2023-04-23T23:24:52;99520.0;;;9.7;62.5
28456;BME280;15682;56.742;38.866;2023-04-23T23:26:52;99520.0;;;9.7;61.8
28456;BME280;15682;56.742;38.866;2023-04-23T23:28:52;99520.0;;;9.7;61.8
28456;BME280;15682;56.742;38.866;2023-04-23T23:30:53;99520.0;;;9.7;62.4
28456;BME280;15682;56.742;38.866;2023-04-23T23:32:53;99520.0;;;9.7;61.6
28456;BME280;15682;56.742;38.866;2023-04-23T23:34:53;99520.0;;;9.7;61.6
28456;BME280;15682;56.742;38.866;2023-04-23T23:36:53;99520.0;;;9.7;61.6
28456;BME280;15682;56.742;38.866;2023-04-23T23:38:53;99530.0;;;9.6;61.6
28456;BME280;15682;56.742;38.866;2023-04-23T23:40:53;99530.0;;;9.6;63.1
28456;BME280;15682;56.742;38.866;2023-04-23T23:42:53;99530.0;;;9.6;62.0
28456;BME280;15682;56.742;38.866;2023-04-23T23:44:53;99520.0;;;9.6;62.6
28456;BME280;15682;56.742;38.866;2023-04-23T23:46:53;99520.0;;;9.6;62.1
28456;BME280;15682;56.742;38.866;2023-04-23T23:48:54;99520.0;;;9.4;63.1
28456;BME280;15682;56.742;38.866;2023-04-23T23:50:54;99520.0;;;9.4;63.1
28456;BME280;15682;56.742;38.866;2023-04-23T23:52:54;99520.0;;;9.4;62.5
28456;BME280;15682;56.742;38.866;2023-04-23T23:54:54;99520.0;;;9.4;63.1
28456;BME280;15682;56.742;38.866;2023-04-23T23:56:54;99520.0;;;9.3;63.6
28456;BME280;15682;56.742;38.866;2023-04-23T23:58:54;99520.0;;;9.3;62.7
